sensor_id;sensor_type;location;lat;lon;timestamp;P1;durP1;ratioP1;P2;durP2;ratioP2
14738;SDS011;7461;52.440;13.540;2023-04-21T00:00:44;12.95;;;11.55;;
14738;SDS011;7461;52.440;13.540;2023-04-21T00:06:15;11.43;;;10.30;;
14738;SDS011;7461;52.440;13.540;2023-04-21T00:08:46;19.30;;;10.90;;
14738;SDS011;7461;52.440;13.540;2023-04-21T00:11:13;13.05;;;10.13;;
14738;SDS011;7461;52.440;13.540;2023-04-21T00:13:41;11.20;;;8.90;;
14738;SDS011;7461;52.440;13.540;2023-04-21T00:16:24;10.38;;;9.35;;
14738;SDS011;7461;52.440;13.540;2023-04-21T00:18:52;16.02;;;9.75;;
14738;SDS011;7461;52.440;13.540;2023-04-21T00:21:19;14.30;;;10.05;;
14738;SDS011;7461;52.440;13.540;2023-04-21T00:23:46;10.55;;;9.55;;
14738;SDS011;7461;52.440;13.540;2023-04-21T00:26:14;12.50;;;10.07;;
14738;SDS011;7461;52.440;13.540;2023-04-21T00:28:41;12.30;;;10.02;;
14738;SDS011;7461;52.440;13.540;2023-04-21T00:31:08;12.13;;;11.13;;
14738;SDS011;7461;52.440;13.540;2023-04-21T00:33:37;12.30;;;11.30;;
14738;SDS011;7461;52.440;13.540;2023-04-21T00:36:04;14.98;;;11.02;;
14738;SDS011;7461;52.440;13.540;2023-04-21T00:38:32;11.68;;;10.48;;
14738;SDS011;7461;52.440;13.540;2023-04-21T00:40:59;12.27;;;10.95;;
14738;SDS011;7461;52.440;13.540;2023-04-21T00:43:26;11.43;;;10.25;;
14738;SDS011;7461;52.440;13.540;2023-04-21T00:45:54;13.18;;;10.93;;
14738;SDS011;7461;52.440;13.540;2023-04-21T00:48:21;11.00;;;10.02;;
14738;SDS011;7461;52.440;13.540;2023-04-21T00:50:49;10.70;;;9.68;;
14738;SDS011;7461;52.440;13.540;2023-04-21T00:53:17;12.15;;;8.90;;
14738;SDS011;7461;52.440;13.540;2023-04-21T00:55:45;11.43;;;9.88;;
14738;SDS011;7461;52.440;13.540;2023-04-21T00:58:12;15.30;;;10.80;;
14738;SDS011;7461;52.440;13.540;2023-04-21T01:00:40;12.05;;;9.77;;
14738;SDS011;7461;52.440;13.540;2023-04-21T01:03:08;11.93;;;10.90;;
14738;SDS011;7461;52.440;13.540;2023-04-21T01:05:35;11.38;;;10.52;;
14738;SDS011;7461;52.440;13.540;2023-04-21T01:08:04;11.95;;;10.57;;
14738;SDS011;7461;52.440;13.540;2023-04-21T01:10:32;12.35;;;10.88;;
14738;SDS011;7461;52.440;13.540;2023-04-21T01:13:02;11.98;;;10.98;;
14738;SDS011;7461;52.440;13.540;2023-04-21T01:15:30;13.10;;;11.15;;
14738;SDS011;7461;52.440;13.540;2023-04-21T01:17:57;12.93;;;11.80;;
14738;SDS011;7461;52.440;13.540;2023-04-21T01:20:25;18.55;;;11.05;;
14738;SDS011;7461;52.440;13.540;2023-04-21T01:22:55;13.20;;;11.85;;
14738;SDS011;7461;52.440;13.540;2023-04-21T01:25:22;14.50;;;13.02;;
14738;SDS011;7461;52.440;13.540;2023-04-21T01:27:52;15.82;;;12.93;;
14738;SDS011;7461;52.440;13.540;2023-04-21T01:30:19;13.82;;;12.43;;
14738;SDS011;7461;52.440;13.540;2023-04-21T01:32:46;15.00;;;13.55;;
14738;SDS011;7461;52.440;13.540;2023-04-21T01:35:14;16.35;;;14.00;;
14738;SDS011;7461;52.440;13.540;2023-04-21T01:37:41;14.88;;;13.20;;
14738;SDS011;7461;52.440;13.540;2023-04-21T01:40:10;14.77;;;13.27;;
14738;SDS011;7461;52.440;13.540;2023-04-21T01:42:39;15.68;;;14.25;;
14738;SDS011;7461;52.440;13.540;2023-04-21T01:45:07;18.00;;;15.07;;
14738;SDS011;7461;52.440;13.540;2023-04-21T01:47:35;14.88;;;13.68;;
14738;SDS011;7461;52.440;13.540;2023-04-21T01:50:02;16.10;;;14.30;;
14738;SDS011;7461;52.440;13.540;2023-04-21T01:52:30;15.52;;;14.13;;
14738;SDS011;7461;52.440;13.540;2023-04-21T01:54:57;15.77;;;14.23;;
14738;SDS011;7461;52.440;13.540;2023-04-21T01:57:25;16.33;;;14.63;;
14738;SDS011;7461;52.440;13.540;2023-04-21T01:59:53;17.10;;;15.07;;
14738;SDS011;7461;52.440;13.540;2023-04-21T02:02:20;18.13;;;16.63;;
14738;SDS011;7461;52.440;13.540;2023-04-21T02:04:47;15.38;;;14.18;;
14738;SDS011;7461;52.440;13.540;2023-04-21T02:07:15;17.15;;;15.82;;
14738;SDS011;7461;52.440;13.540;2023-04-21T02:09:42;17.95;;;16.45;;
14738;SDS011;7461;52.440;13.540;2023-04-21T02:12:10;15.95;;;14.80;;
14738;SDS011;7461;52.440;13.540;2023-04-21T02:14:38;18.75;;;17.15;;
14738;SDS011;7461;52.440;13.540;2023-04-21T02:17:06;18.27;;;16.77;;
14738;SDS011;7461;52.440;13.540;2023-04-21T02:19:33;18.08;;;16.55;;
14738;SDS011;7461;52.440;13.540;2023-04-21T02:22:01;19.75;;;18.02;;
14738;SDS011;7461;52.440;13.540;2023-04-21T02:24:30;18.08;;;16.35;;
14738;SDS011;7461;52.440;13.540;2023-04-21T02:26:57;19.08;;;17.10;;
14738;SDS011;7461;52.440;13.540;2023-04-21T02:29:26;18.55;;;16.80;;
14738;SDS011;7461;52.440;13.540;2023-04-21T02:31:54;17.67;;;16.33;;
14738;SDS011;7461;52.440;13.540;2023-04-21T02:34:22;17.65;;;15.98;;
14738;SDS011;7461;52.440;13.540;2023-04-21T02:36:49;18.13;;;16.30;;
14738;SDS011;7461;52.440;13.540;2023-04-21T02:39:16;18.40;;;16.80;;
14738;SDS011;7461;52.440;13.540;2023-04-21T02:41:44;16.70;;;15.52;;
14738;SDS011;7461;52.440;13.540;2023-04-21T02:44:11;18.23;;;16.40;;
14738;SDS011;7461;52.440;13.540;2023-04-21T02:46:38;18.15;;;16.77;;
14738;SDS011;7461;52.440;13.540;2023-04-21T02:49:07;18.58;;;16.98;;
14738;SDS011;7461;52.440;13.540;2023-04-21T02:51:34;17.05;;;15.68;;
14738;SDS011;7461;52.440;13.540;2023-04-21T02:54:02;17.42;;;15.55;;
14738;SDS011;7461;52.440;13.540;2023-04-21T02:56:29;17.27;;;15.40;;
14738;SDS011;7461;52.440;13.540;2023-04-21T02:58:58;16.75;;;15.32;;
14738;SDS011;7461;52.440;13.540;2023-04-21T03:01:25;16.85;;;15.27;;
14738;SDS011;7461;52.440;13.540;2023-04-21T03:03:53;17.85;;;16.45;;
14738;SDS011;7461;52.440;13.540;2023-04-21T03:06:21;19.15;;;17.35;;
14738;SDS011;7461;52.440;13.540;2023-04-21T03:08:48;18.88;;;17.15;;
14738;SDS011;7461;52.440;13.540;2023-04-21T03:11:16;18.42;;;16.45;;
14738;SDS011;7461;52.440;13.540;2023-04-21T03:13:43;16.85;;;15.48;;
14738;SDS011;7461;52.440;13.540;2023-04-21T03:16:10;19.50;;;17.70;;
14738;SDS011;7461;52.440;13.540;2023-04-21T03:18:38;18.15;;;16.83;;
14738;SDS011;7461;52.440;13.540;2023-04-21T03:21:05;17.55;;;16.23;;
14738;SDS011;7461;52.440;13.540;2023-04-21T03:23:34;19.27;;;17.70;;
14738;SDS011;7461;52.440;13.540;2023-04-21T03:26:04;19.98;;;18.40;;
14738;SDS011;7461;52.440;13.540;2023-04-21T03:28:32;17.65;;;16.08;;
14738;SDS011;7461;52.440;13.540;2023-04-21T03:30:59;17.63;;;16.35;;
14738;SDS011;7461;52.440;13.540;2023-04-21T03:33:26;18.00;;;16.70;;
14738;SDS011;7461;52.440;13.540;2023-04-21T03:35:54;18.33;;;16.83;;
14738;SDS011;7461;52.440;13.540;2023-04-21T03:38:21;18.25;;;16.95;;
14738;SDS011;7461;52.440;13.540;2023-04-21T03:40:50;17.77;;;16.17;;
14738;SDS011;7461;52.440;13.540;2023-04-21T03:43:17;18.38;;;16.98;;
14738;SDS011;7461;52.440;13.540;2023-04-21T03:45:44;19.15;;;17.83;;
14738;SDS011;7461;52.440;13.540;2023-04-21T03:48:11;19.88;;;18.25;;
14738;SDS011;7461;52.440;13.540;2023-04-21T03:50:39;18.67;;;17.27;;
14738;SDS011;7461;52.440;13.540;2023-04-21T03:53:06;19.48;;;17.77;;
14738;SDS011;7461;52.440;13.540;2023-04-21T03:55:33;18.33;;;16.98;;
14738;SDS011;7461;52.440;13.540;2023-04-21T03:58:02;17.70;;;16.25;;
14738;SDS011;7461;52.440;13.540;2023-04-21T04:00:29;20.08;;;18.20;;
14738;SDS011;7461;52.440;13.540;2023-04-21T04:02:56;18.45;;;17.05;;
14738;SDS011;7461;52.440;13.540;2023-04-21T04:05:24;20.30;;;18.48;;
14738;SDS011;7461;52.440;13.540;2023-04-21T04:07:51;22.95;;;17.02;;
14738;SDS011;7461;52.440;13.540;2023-04-21T04:10:18;22.30;;;20.33;;
14738;SDS011;7461;52.440;13.540;2023-04-21T04:12:46;23.42;;;21.05;;
14738;SDS011;7461;52.440;13.540;2023-04-21T04:15:14;21.98;;;20.42;;
14738;SDS011;7461;52.440;13.540;2023-04-21T04:17:42;21.85;;;19.95;;
14738;SDS011;7461;52.440;13.540;2023-04-21T04:20:09;22.17;;;20.67;;
14738;SDS011;7461;52.440;13.540;2023-04-21T04:22:36;20.70;;;19.13;;
14738;SDS011;7461;52.440;13.540;2023-04-21T04:25:04;23.50;;;21.60;;
14738;SDS011;7461;52.440;13.540;2023-04-21T04:27:32;21.90;;;20.25;;
14738;SDS011;7461;52.440;13.540;2023-04-21T04:29:59;20.58;;;19.17;;
14738;SDS011;7461;52.440;13.540;2023-04-21T04:32:28;21.08;;;19.48;;
14738;SDS011;7461;52.440;13.540;2023-04-21T04:34:57;18.88;;;17.60;;
14738;SDS011;7461;52.440;13.540;2023-04-21T04:37:24;20.65;;;19.17;;
14738;SDS011;7461;52.440;13.540;2023-04-21T04:39:52;19.40;;;17.95;;
14738;SDS011;7461;52.440;13.540;2023-04-21T04:42:19;18.88;;;17.48;;
14738;SDS011;7461;52.440;13.540;2023-04-21T04:44:46;22.00;;;19.48;;
14738;SDS011;7461;52.440;13.540;2023-04-21T04:47:14;21.45;;;19.80;;
14738;SDS011;7461;52.440;13.540;2023-04-21T04:49:42;22.40;;;20.45;;
14738;SDS011;7461;52.440;13.540;2023-04-21T04:52:10;20.42;;;18.58;;
14738;SDS011;7461;52.440;13.540;2023-04-21T04:54:37;21.38;;;19.55;;
14738;SDS011;7461;52.440;13.540;2023-04-21T04:57:04;20.63;;;19.13;;
14738;SDS011;7461;52.440;13.540;2023-04-21T04:59:31;21.60;;;19.63;;
14738;SDS011;7461;52.440;13.540;2023-04-21T05:01:58;20.00;;;18.50;;
14738;SDS011;7461;52.440;13.540;2023-04-21T05:04:26;21.73;;;20.05;;
14738;SDS011;7461;52.440;13.540;2023-04-21T05:06:55;23.63;;;21.42;;
14738;SDS011;7461;52.440;13.540;2023-04-21T05:09:22;20.73;;;18.92;;
14738;SDS011;7461;52.440;13.540;2023-04-21T05:11:50;21.27;;;19.45;;
14738;SDS011;7461;52.440;13.540;2023-04-21T05:14:17;21.30;;;19.52;;
14738;SDS011;7461;52.440;13.540;2023-04-21T05:16:44;19.85;;;18.20;;
14738;SDS011;7461;52.440;13.540;2023-04-21T05:19:11;19.15;;;17.70;;
14738;SDS011;7461;52.440;13.540;2023-04-21T05:21:39;20.77;;;19.23;;
14738;SDS011;7461;52.440;13.540;2023-04-21T05:24:07;20.00;;;18.50;;
14738;SDS011;7461;52.440;13.540;2023-04-21T05:26:35;19.90;;;18.17;;
14738;SDS011;7461;52.440;13.540;2023-04-21T05:29:02;21.00;;;19.40;;
14738;SDS011;7461;52.440;13.540;2023-04-21T05:31:29;21.20;;;19.45;;
14738;SDS011;7461;52.440;13.540;2023-04-21T05:33:57;20.90;;;19.48;;
14738;SDS011;7461;52.440;13.540;2023-04-21T05:36:24;19.67;;;17.92;;
14738;SDS011;7461;52.440;13.540;2023-04-21T05:38:51;19.63;;;18.08;;
14738;SDS011;7461;52.440;13.540;2023-04-21T05:41:20;19.20;;;17.65;;
14738;SDS011;7461;52.440;13.540;2023-04-21T05:43:48;20.88;;;19.30;;
14738;SDS011;7461;52.440;13.540;2023-04-21T05:46:15;18.05;;;16.67;;
14738;SDS011;7461;52.440;13.540;2023-04-21T05:48:42;21.00;;;19.20;;
14738;SDS011;7461;52.440;13.540;2023-04-21T05:51:10;20.45;;;18.98;;
14738;SDS011;7461;52.440;13.540;2023-04-21T05:53:38;19.63;;;17.83;;
14738;SDS011;7461;52.440;13.540;2023-04-21T05:56:05;20.05;;;18.70;;
14738;SDS011;7461;52.440;13.540;2023-04-21T05:58:35;21.98;;;20.02;;
14738;SDS011;7461;52.440;13.540;2023-04-21T06:01:03;20.88;;;19.17;;
14738;SDS011;7461;52.440;13.540;2023-04-21T06:03:30;22.80;;;20.23;;
14738;SDS011;7461;52.440;13.540;2023-04-21T06:05:58;20.58;;;18.75;;
14738;SDS011;7461;52.440;13.540;2023-04-21T06:08:25;18.92;;;16.98;;
14738;SDS011;7461;52.440;13.540;2023-04-21T06:10:53;19.38;;;17.98;;
14738;SDS011;7461;52.440;13.540;2023-04-21T06:13:20;20.13;;;18.67;;
14738;SDS011;7461;52.440;13.540;2023-04-21T06:15:48;18.65;;;17.23;;
14738;SDS011;7461;52.440;13.540;2023-04-21T06:18:16;21.35;;;19.48;;
14738;SDS011;7461;52.440;13.540;2023-04-21T06:20:48;18.63;;;17.33;;
14738;SDS011;7461;52.440;13.540;2023-04-21T06:23:15;19.85;;;18.27;;
14738;SDS011;7461;52.440;13.540;2023-04-21T06:25:43;21.55;;;19.92;;
14738;SDS011;7461;52.440;13.540;2023-04-21T06:28:10;19.48;;;17.88;;
14738;SDS011;7461;52.440;13.540;2023-04-21T06:30:37;20.52;;;18.90;;
14738;SDS011;7461;52.440;13.540;2023-04-21T06:33:06;20.80;;;19.20;;
14738;SDS011;7461;52.440;13.540;2023-04-21T06:35:33;19.98;;;18.48;;
14738;SDS011;7461;52.440;13.540;2023-04-21T06:38:01;20.40;;;18.67;;
14738;SDS011;7461;52.440;13.540;2023-04-21T06:40:28;19.00;;;17.50;;
14738;SDS011;7461;52.440;13.540;2023-04-21T06:42:55;20.15;;;18.65;;
14738;SDS011;7461;52.440;13.540;2023-04-21T06:45:23;19.88;;;18.30;;
14738;SDS011;7461;52.440;13.540;2023-04-21T06:47:50;18.77;;;17.40;;
14738;SDS011;7461;52.440;13.540;2023-04-21T06:50:19;20.17;;;18.80;;
14738;SDS011;7461;52.440;13.540;2023-04-21T06:52:46;20.50;;;18.67;;
14738;SDS011;7461;52.440;13.540;2023-04-21T06:55:13;18.48;;;16.85;;
14738;SDS011;7461;52.440;13.540;2023-04-21T06:57:41;20.13;;;18.63;;
14738;SDS011;7461;52.440;13.540;2023-04-21T07:00:08;19.45;;;17.85;;
14738;SDS011;7461;52.440;13.540;2023-04-21T07:02:36;19.27;;;17.77;;
14738;SDS011;7461;52.440;13.540;2023-04-21T07:05:03;15.85;;;14.68;;
14738;SDS011;7461;52.440;13.540;2023-04-21T07:07:32;18.63;;;17.23;;
14738;SDS011;7461;52.440;13.540;2023-04-21T07:09:59;18.52;;;17.20;;
14738;SDS011;7461;52.440;13.540;2023-04-21T07:12:26;18.63;;;17.23;;
14738;SDS011;7461;52.440;13.540;2023-04-21T07:14:54;18.25;;;16.77;;
14738;SDS011;7461;52.440;13.540;2023-04-21T07:17:21;18.27;;;16.92;;
14738;SDS011;7461;52.440;13.540;2023-04-21T07:19:48;16.20;;;15.13;;
14738;SDS011;7461;52.440;13.540;2023-04-21T07:22:15;18.73;;;17.30;;
14738;SDS011;7461;52.440;13.540;2023-04-21T07:24:44;17.02;;;15.77;;
14738;SDS011;7461;52.440;13.540;2023-04-21T07:27:11;18.30;;;16.90;;
14738;SDS011;7461;52.440;13.540;2023-04-21T07:29:38;18.70;;;17.17;;
14738;SDS011;7461;52.440;13.540;2023-04-21T07:32:06;16.73;;;15.50;;
14738;SDS011;7461;52.440;13.540;2023-04-21T07:34:33;20.25;;;18.33;;
14738;SDS011;7461;52.440;13.540;2023-04-21T07:37:00;16.33;;;14.88;;
14738;SDS011;7461;52.440;13.540;2023-04-21T07:39:27;17.30;;;15.90;;
14738;SDS011;7461;52.440;13.540;2023-04-21T07:41:56;18.25;;;16.73;;
14738;SDS011;7461;52.440;13.540;2023-04-21T07:44:23;18.67;;;17.13;;
14738;SDS011;7461;52.440;13.540;2023-04-21T07:46:50;17.90;;;16.40;;
14738;SDS011;7461;52.440;13.540;2023-04-21T07:49:18;16.80;;;15.50;;
14738;SDS011;7461;52.440;13.540;2023-04-21T07:51:45;16.77;;;15.40;;
14738;SDS011;7461;52.440;13.540;2023-04-21T07:54:12;17.23;;;15.77;;
14738;SDS011;7461;52.440;13.540;2023-04-21T07:56:39;19.48;;;17.83;;
14738;SDS011;7461;52.440;13.540;2023-04-21T07:59:08;16.73;;;15.35;;
14738;SDS011;7461;52.440;13.540;2023-04-21T08:01:35;18.77;;;17.10;;
14738;SDS011;7461;52.440;13.540;2023-04-21T08:04:02;16.52;;;15.00;;
14738;SDS011;7461;52.440;13.540;2023-04-21T08:06:30;17.02;;;15.63;;
14738;SDS011;7461;52.440;13.540;2023-04-21T08:08:58;14.90;;;13.75;;
14738;SDS011;7461;52.440;13.540;2023-04-21T08:11:25;15.98;;;14.57;;
14738;SDS011;7461;52.440;13.540;2023-04-21T08:13:53;15.57;;;14.13;;
14738;SDS011;7461;52.440;13.540;2023-04-21T08:16:23;15.65;;;14.20;;
14738;SDS011;7461;52.440;13.540;2023-04-21T08:18:50;14.63;;;13.52;;
14738;SDS011;7461;52.440;13.540;2023-04-21T08:21:17;15.95;;;14.75;;
14738;SDS011;7461;52.440;13.540;2023-04-21T08:23:45;14.88;;;13.43;;
14738;SDS011;7461;52.440;13.540;2023-04-21T08:26:12;14.85;;;13.57;;
14738;SDS011;7461;52.440;13.540;2023-04-21T08:28:39;16.23;;;14.93;;
14738;SDS011;7461;52.440;13.540;2023-04-21T08:31:06;15.63;;;14.35;;
14738;SDS011;7461;52.440;13.540;2023-04-21T08:33:35;15.85;;;14.55;;
14738;SDS011;7461;52.440;13.540;2023-04-21T08:36:03;14.10;;;13.18;;
14738;SDS011;7461;52.440;13.540;2023-04-21T08:38:30;13.23;;;12.30;;
14738;SDS011;7461;52.440;13.540;2023-04-21T08:40:58;14.43;;;13.43;;
14738;SDS011;7461;52.440;13.540;2023-04-21T08:43:25;14.63;;;13.35;;
14738;SDS011;7461;52.440;13.540;2023-04-21T08:45:53;13.98;;;12.82;;
14738;SDS011;7461;52.440;13.540;2023-04-21T08:48:20;13.95;;;13.05;;
14738;SDS011;7461;52.440;13.540;2023-04-21T08:50:50;12.70;;;11.65;;
14738;SDS011;7461;52.440;13.540;2023-04-21T08:53:18;12.80;;;11.80;;
14738;SDS011;7461;52.440;13.540;2023-04-21T08:55:48;13.98;;;12.88;;
14738;SDS011;7461;52.440;13.540;2023-04-21T08:58:19;14.43;;;13.35;;
14738;SDS011;7461;52.440;13.540;2023-04-21T09:00:47;14.90;;;13.73;;
14738;SDS011;7461;52.440;13.540;2023-04-21T09:03:20;14.13;;;12.90;;
14738;SDS011;7461;52.440;13.540;2023-04-21T09:05:57;14.20;;;13.05;;
14738;SDS011;7461;52.440;13.540;2023-04-21T09:08:24;13.25;;;12.15;;
14738;SDS011;7461;52.440;13.540;2023-04-21T09:10:53;13.70;;;12.48;;
14738;SDS011;7461;52.440;13.540;2023-04-21T09:13:20;19.27;;;14.18;;
14738;SDS011;7461;52.440;13.540;2023-04-21T09:15:54;11.80;;;10.90;;
14738;SDS011;7461;52.440;13.540;2023-04-21T09:18:22;13.18;;;12.25;;
14738;SDS011;7461;52.440;13.540;2023-04-21T09:20:50;13.20;;;12.20;;
14738;SDS011;7461;52.440;13.540;2023-04-21T09:23:20;13.63;;;12.52;;
14738;SDS011;7461;52.440;13.540;2023-04-21T09:25:47;13.73;;;12.52;;
14738;SDS011;7461;52.440;13.540;2023-04-21T09:28:15;14.50;;;13.40;;
14738;SDS011;7461;52.440;13.540;2023-04-21T09:30:42;13.20;;;12.23;;
14738;SDS011;7461;52.440;13.540;2023-04-21T09:33:13;13.85;;;12.70;;
14738;SDS011;7461;52.440;13.540;2023-04-21T09:35:42;11.48;;;10.45;;
14738;SDS011;7461;52.440;13.540;2023-04-21T09:38:10;14.25;;;13.20;;
14738;SDS011;7461;52.440;13.540;2023-04-21T09:40:38;13.73;;;12.82;;
14738;SDS011;7461;52.440;13.540;2023-04-21T09:43:06;12.93;;;12.13;;
14738;SDS011;7461;52.440;13.540;2023-04-21T09:45:33;13.23;;;12.25;;
14738;SDS011;7461;52.440;13.540;2023-04-21T09:48:00;12.25;;;11.43;;
14738;SDS011;7461;52.440;13.540;2023-04-21T09:50:29;12.73;;;11.60;;
14738;SDS011;7461;52.440;13.540;2023-04-21T09:52:57;12.30;;;11.30;;
14738;SDS011;7461;52.440;13.540;2023-04-21T09:55:27;13.35;;;12.25;;
14738;SDS011;7461;52.440;13.540;2023-04-21T09:57:56;13.45;;;12.35;;
14738;SDS011;7461;52.440;13.540;2023-04-21T10:00:25;12.75;;;11.65;;
14738;SDS011;7461;52.440;13.540;2023-04-21T10:02:53;11.43;;;10.73;;
14738;SDS011;7461;52.440;13.540;2023-04-21T10:05:21;13.20;;;12.40;;
14738;SDS011;7461;52.440;13.540;2023-04-21T10:07:48;12.55;;;11.50;;
14738;SDS011;7461;52.440;13.540;2023-04-21T10:10:18;11.07;;;10.35;;
14738;SDS011;7461;52.440;13.540;2023-04-21T10:12:46;12.90;;;12.07;;
14738;SDS011;7461;52.440;13.540;2023-04-21T10:18:12;12.27;;;11.48;;
14738;SDS011;7461;52.440;13.540;2023-04-21T10:23:28;12.15;;;11.35;;
14738;SDS011;7461;52.440;13.540;2023-04-21T10:26:01;11.95;;;11.07;;
14738;SDS011;7461;52.440;13.540;2023-04-21T10:28:38;11.95;;;11.07;;
14738;SDS011;7461;52.440;13.540;2023-04-21T10:31:21;12.68;;;11.75;;
14738;SDS011;7461;52.440;13.540;2023-04-21T10:36:42;10.45;;;9.75;;
14738;SDS011;7461;52.440;13.540;2023-04-21T10:39:24;11.05;;;10.13;;
14738;SDS011;7461;52.440;13.540;2023-04-21T10:41:53;11.75;;;10.85;;
14738;SDS011;7461;52.440;13.540;2023-04-21T10:44:21;12.25;;;11.32;;
14738;SDS011;7461;52.440;13.540;2023-04-21T10:46:49;11.90;;;10.95;;
14738;SDS011;7461;52.440;13.540;2023-04-21T10:49:20;11.65;;;10.85;;
14738;SDS011;7461;52.440;13.540;2023-04-21T10:52:05;11.48;;;10.73;;
14738;SDS011;7461;52.440;13.540;2023-04-21T10:54:36;11.95;;;11.02;;
14738;SDS011;7461;52.440;13.540;2023-04-21T10:57:07;11.98;;;11.07;;
14738;SDS011;7461;52.440;13.540;2023-04-21T10:59:35;10.68;;;10.00;;
14738;SDS011;7461;52.440;13.540;2023-04-21T11:02:03;10.98;;;10.18;;
14738;SDS011;7461;52.440;13.540;2023-04-21T11:04:31;10.57;;;9.88;;
14738;SDS011;7461;52.440;13.540;2023-04-21T11:07:07;11.73;;;10.85;;
14738;SDS011;7461;52.440;13.540;2023-04-21T11:09:34;11.95;;;10.82;;
14738;SDS011;7461;52.440;13.540;2023-04-21T11:12:03;11.73;;;10.77;;
14738;SDS011;7461;52.440;13.540;2023-04-21T11:14:31;11.50;;;10.50;;
14738;SDS011;7461;52.440;13.540;2023-04-21T11:16:59;12.48;;;11.35;;
14738;SDS011;7461;52.440;13.540;2023-04-21T11:19:26;11.40;;;10.55;;
14738;SDS011;7461;52.440;13.540;2023-04-21T11:21:54;11.05;;;10.35;;
14738;SDS011;7461;52.440;13.540;2023-04-21T11:24:22;12.25;;;11.35;;
14738;SDS011;7461;52.440;13.540;2023-04-21T11:26:50;11.05;;;10.25;;
14738;SDS011;7461;52.440;13.540;2023-04-21T11:29:17;11.75;;;10.80;;
14738;SDS011;7461;52.440;13.540;2023-04-21T11:31:44;12.13;;;11.07;;
14738;SDS011;7461;52.440;13.540;2023-04-21T11:34:13;12.80;;;11.75;;
14738;SDS011;7461;52.440;13.540;2023-04-21T11:36:42;12.00;;;10.90;;
14738;SDS011;7461;52.440;13.540;2023-04-21T11:39:10;11.15;;;10.45;;
14738;SDS011;7461;52.440;13.540;2023-04-21T11:41:40;10.68;;;9.98;;
14738;SDS011;7461;52.440;13.540;2023-04-21T11:44:10;11.43;;;10.48;;
14738;SDS011;7461;52.440;13.540;2023-04-21T11:46:43;11.18;;;10.45;;
14738;SDS011;7461;52.440;13.540;2023-04-21T11:49:11;11.32;;;10.43;;
14738;SDS011;7461;52.440;13.540;2023-04-21T11:51:39;11.50;;;10.80;;
14738;SDS011;7461;52.440;13.540;2023-04-21T11:54:07;13.02;;;10.95;;
14738;SDS011;7461;52.440;13.540;2023-04-21T11:56:35;11.80;;;10.80;;
14738;SDS011;7461;52.440;13.540;2023-04-21T11:59:07;9.52;;;8.98;;
14738;SDS011;7461;52.440;13.540;2023-04-21T12:01:41;10.18;;;9.55;;
14738;SDS011;7461;52.440;13.540;2023-04-21T12:04:12;12.57;;;11.68;;
14738;SDS011;7461;52.440;13.540;2023-04-21T12:06:39;10.40;;;9.63;;
14738;SDS011;7461;52.440;13.540;2023-04-21T12:09:07;11.75;;;10.60;;
14738;SDS011;7461;52.440;13.540;2023-04-21T12:11:34;10.57;;;9.73;;
14738;SDS011;7461;52.440;13.540;2023-04-21T12:14:02;12.05;;;10.98;;
14738;SDS011;7461;52.440;13.540;2023-04-21T12:16:30;9.52;;;8.77;;
14738;SDS011;7461;52.440;13.540;2023-04-21T12:18:58;10.15;;;9.50;;
14738;SDS011;7461;52.440;13.540;2023-04-21T12:21:25;11.27;;;10.48;;
14738;SDS011;7461;52.440;13.540;2023-04-21T12:23:53;10.52;;;9.82;;
14738;SDS011;7461;52.440;13.540;2023-04-21T12:26:20;10.10;;;9.18;;
14738;SDS011;7461;52.440;13.540;2023-04-21T12:28:48;9.80;;;9.18;;
14738;SDS011;7461;52.440;13.540;2023-04-21T12:31:16;11.60;;;10.60;;
14738;SDS011;7461;52.440;13.540;2023-04-21T12:33:45;10.63;;;9.65;;
14738;SDS011;7461;52.440;13.540;2023-04-21T12:36:13;11.38;;;10.35;;
14738;SDS011;7461;52.440;13.540;2023-04-21T12:38:40;11.73;;;10.80;;
14738;SDS011;7461;52.440;13.540;2023-04-21T12:41:08;9.43;;;8.65;;
14738;SDS011;7461;52.440;13.540;2023-04-21T12:43:35;10.18;;;9.43;;
14738;SDS011;7461;52.440;13.540;2023-04-21T12:46:03;8.57;;;7.97;;
14738;SDS011;7461;52.440;13.540;2023-04-21T12:48:30;10.07;;;9.27;;
14738;SDS011;7461;52.440;13.540;2023-04-21T12:51:00;9.93;;;9.20;;
14738;SDS011;7461;52.440;13.540;2023-04-21T12:53:27;9.27;;;8.55;;
14738;SDS011;7461;52.440;13.540;2023-04-21T12:55:54;8.73;;;7.97;;
14738;SDS011;7461;52.440;13.540;2023-04-21T12:58:22;9.93;;;9.23;;
14738;SDS011;7461;52.440;13.540;2023-04-21T13:00:49;10.20;;;9.30;;
14738;SDS011;7461;52.440;13.540;2023-04-21T13:03:16;9.98;;;9.20;;
14738;SDS011;7461;52.440;13.540;2023-04-21T13:05:44;10.02;;;9.43;;
14738;SDS011;7461;52.440;13.540;2023-04-21T13:08:12;11.13;;;10.00;;
14738;SDS011;7461;52.440;13.540;2023-04-21T13:10:40;8.90;;;8.25;;
14738;SDS011;7461;52.440;13.540;2023-04-21T13:13:07;10.00;;;9.15;;
14738;SDS011;7461;52.440;13.540;2023-04-21T13:15:34;9.50;;;8.90;;
14738;SDS011;7461;52.440;13.540;2023-04-21T13:18:01;10.40;;;9.70;;
14738;SDS011;7461;52.440;13.540;2023-04-21T13:20:29;10.25;;;9.52;;
14738;SDS011;7461;52.440;13.540;2023-04-21T13:22:56;8.68;;;7.97;;
14738;SDS011;7461;52.440;13.540;2023-04-21T13:25:25;9.63;;;8.70;;
14738;SDS011;7461;52.440;13.540;2023-04-21T13:27:52;11.05;;;10.20;;
14738;SDS011;7461;52.440;13.540;2023-04-21T13:30:19;9.45;;;8.60;;
14738;SDS011;7461;52.440;13.540;2023-04-21T13:32:47;9.52;;;8.70;;
14738;SDS011;7461;52.440;13.540;2023-04-21T13:35:14;10.32;;;9.32;;
14738;SDS011;7461;52.440;13.540;2023-04-21T13:37:42;9.30;;;8.65;;
14738;SDS011;7461;52.440;13.540;2023-04-21T13:40:10;8.75;;;8.10;;
14738;SDS011;7461;52.440;13.540;2023-04-21T13:42:40;7.85;;;7.35;;
14738;SDS011;7461;52.440;13.540;2023-04-21T13:45:07;8.57;;;7.97;;
14738;SDS011;7461;52.440;13.540;2023-04-21T13:47:35;9.27;;;8.55;;
14738;SDS011;7461;52.440;13.540;2023-04-21T13:50:03;8.38;;;7.68;;
14738;SDS011;7461;52.440;13.540;2023-04-21T13:52:30;9.43;;;8.73;;
14738;SDS011;7461;52.440;13.540;2023-04-21T13:55:00;9.13;;;8.40;;
14738;SDS011;7461;52.440;13.540;2023-04-21T13:57:28;8.45;;;7.88;;
14738;SDS011;7461;52.440;13.540;2023-04-21T13:59:56;7.95;;;7.35;;
14738;SDS011;7461;52.440;13.540;2023-04-21T14:02:24;8.40;;;7.68;;
14738;SDS011;7461;52.440;13.540;2023-04-21T14:04:52;8.95;;;8.15;;
14738;SDS011;7461;52.440;13.540;2023-04-21T14:07:19;9.02;;;8.25;;
14738;SDS011;7461;52.440;13.540;2023-04-21T14:09:46;10.05;;;8.02;;
14738;SDS011;7461;52.440;13.540;2023-04-21T14:12:15;8.52;;;7.93;;
14738;SDS011;7461;52.440;13.540;2023-04-21T14:14:43;7.80;;;7.20;;
14738;SDS011;7461;52.440;13.540;2023-04-21T14:17:12;9.15;;;7.95;;
14738;SDS011;7461;52.440;13.540;2023-04-21T14:19:43;8.93;;;8.15;;
14738;SDS011;7461;52.440;13.540;2023-04-21T14:22:11;9.40;;;8.80;;
14738;SDS011;7461;52.440;13.540;2023-04-21T14:24:38;8.45;;;7.75;;
14738;SDS011;7461;52.440;13.540;2023-04-21T14:27:06;7.90;;;7.38;;
14738;SDS011;7461;52.440;13.540;2023-04-21T14:29:33;9.13;;;8.23;;
14738;SDS011;7461;52.440;13.540;2023-04-21T14:32:01;8.23;;;7.60;;
14738;SDS011;7461;52.440;13.540;2023-04-21T14:34:29;8.65;;;7.85;;
14738;SDS011;7461;52.440;13.540;2023-04-21T14:36:57;9.73;;;9.00;;
14738;SDS011;7461;52.440;13.540;2023-04-21T14:39:24;8.77;;;8.23;;
14738;SDS011;7461;52.440;13.540;2023-04-21T14:41:52;7.78;;;7.18;;